Time,TemperatureF,DewpointF,PressureIn,WindDirection,WindDirectionDegrees,WindSpeedMPH,WindSpeedGustMPH,Humidity,HourlyPrecipIn,Conditions,Clouds,dailyrainin,SoftwareType,DateUTC
2013-11-06 00:02:00,78.0,70.0,30.02,ESE,104,5.0,10.0,77,0.00,,,0.00,weatherlink.com 1.10,2013-11-06 05:02:00,
2013-11-06 00:17:00,77.9,70.0,30.02,ENE,77,2.0,12.0,77,0.00,,,0.00,weatherlink.com 1.10,2013-11-06 05:17:00,
2013-11-06 00:32:00,77.8,70.0,30.02,East,86,4.0,12.0,77,0.00,,,0.00,weatherlink.com 1.10,2013-11-06 05:32:00,
2013-11-06 00:47:00,77.6,70.0,30.01,ENE,68,1.0,9.0,78,0.00,,,0.00,weatherlink.com 1.10,2013-11-06 05:47:00,
2013-11-06 01:02:00,77.7,70.0,30.01,SE,134,2.0,9.0,77,0.00,,,0.00,weatherlink.com 1.10,2013-11-06 06:02:00,
2013-11-06 01:17:00,77.6,70.0,30.00,ESE,110,3.0,9.0,78,0.00,,,0.00,weatherlink.com 1.10,2013-11-06 06:17:00,
2013-11-06 01:32:00,77.6,70.0,30.00,East,101,6.0,10.0,77,0.00,,,0.00,weatherlink.com 1.10,2013-11-06 06:32:00,
2013-11-06 01:47:00,77.6,70.0,30.00,SSE,152,3.0,11.0,78,0.00,,,0.00,weatherlink.com 1.10,2013-11-06 06:47:00,
2013-11-06 02:02:00,77.7,70.0,30.00,ENE,61,1.0,14.0,78,0.00,,,0.00,weatherlink.com 1.10,2013-11-06 07:02:00,
2013-11-06 02:17:00,77.7,70.0,30.00,East,100,3.0,13.0,78,0.00,,,0.00,weatherlink.com 1.10,2013-11-06 07:17:00,
2013-11-06 02:32:00,77.5,70.0,30.00,ENE,65,2.0,9.0,78,0.00,,,0.00,weatherlink.com 1.10,2013-11-06 07:32:00,
2013-11-06 02:47:00,77.4,70.0,29.99,ESE,105,3.0,8.0,78,0.00,,,0.00,weatherlink.com 1.10,2013-11-06 07:47:00,
2013-11-06 03:02:00,77.2,70.0,29.98,NE,52,0.0,8.0,78,0.00,,,0.00,weatherlink.com 1.10,2013-11-06 08:02:00,
2013-11-06 03:17:00,77.1,70.0,29.99,ENE,64,1.0,10.0,79,0.00,,,0.00,weatherlink.com 1.10,2013-11-06 08:17:00,
2013-11-06 03:32:00,77.1,70.0,29.99,ESE,109,5.0,8.0,79,0.00,,,0.00,weatherlink.com 1.10,2013-11-06 08:32:00,
2013-11-06 03:47:00,77.1,70.0,29.98,East,85,5.0,10.0,79,0.00,,,0.00,weatherlink.com 1.10,2013-11-06 08:47:00,
2013-11-06 04:02:00,77.1,70.0,29.98,ESE,110,6.0,9.0,79,0.00,,,0.00,weatherlink.com 1.10,2013-11-06 09:02:00,
2013-11-06 04:17:00,77.0,70.0,29.98,NE,39,4.0,10.0,79,0.00,,,0.00,weatherlink.com 1.10,2013-11-06 09:17:00,
2013-11-06 04:32:00,77.0,70.0,29.99,ENE,71,2.0,8.0,79,0.00,,,0.00,weatherlink.com 1.10,2013-11-06 09:32:00,
2013-11-06 04:47:00,76.9,70.0,29.99,East,82,3.0,6.0,78,0.00,,,0.00,weatherlink.com 1.10,2013-11-06 09:47:00,
2013-11-06 05:02:00,77.0,70.0,29.99,East,101,6.0,7.0,78,0.00,,,0.00,weatherlink.com 1.10,2013-11-06 10:02:00,
2013-11-06 05:17:00,77.2,70.0,29.99,ENE,72,6.0,9.0,77,0.00,,,0.00,weatherlink.com 1.10,2013-11-06 10:17:00,
2013-11-06 05:32:00,77.1,70.0,30.00,ENE,75,2.0,6.0,78,0.00,,,0.00,weatherlink.com 1.10,2013-11-06 10:32:00,
2013-11-06 05:47:00,77.1,70.0,30.00,East,101,4.0,9.0,78,0.00,,,0.00,weatherlink.com 1.10,2013-11-06 10:47:00,
2013-11-06 06:02:00,77.0,70.0,30.01,ESE,112,1.0,7.0,78,0.00,,,0.00,weatherlink.com 1.10,2013-11-06 11:02:00,
2013-11-06 06:32:00,77.1,70.0,30.01,East,95,2.0,8.0,78,0.00,,,0.00,weatherlink.com 1.10,2013-11-06 11:32:00,
2013-11-06 06:47:00,77.2,70.0,30.02,NE,46,3.0,6.0,78,0.00,,,0.00,weatherlink.com 1.10,2013-11-06 11:47:00,
2013-11-06 07:02:00,77.3,70.0,30.02,East,85,1.0,8.0,78,0.00,,,0.00,weatherlink.com 1.10,2013-11-06 12:02:00,
2013-11-06 07:17:00,77.6,70.0,30.03,ESE,106,1.0,8.0,78,0.00,,,0.00,weatherlink.com 1.10,2013-11-06 12:17:00,
2013-11-06 07:32:00,77.7,70.0,30.03,East,91,5.0,8.0,78,0.00,,,0.00,weatherlink.com 1.10,2013-11-06 12:32:00,
2013-11-06 07:47:00,78.1,70.0,30.03,ENE,62,2.0,8.0,77,0.00,,,0.00,weatherlink.com 1.10,2013-11-06 12:47:00,
2013-11-06 08:02:00,79.1,71.0,30.03,East,84,2.0,11.0,75,0.00,,,0.00,weatherlink.com 1.10,2013-11-06 13:02:00,
2013-11-06 08:17:00,78.8,70.0,30.04,SE,145,7.0,10.0,75,0.00,,,0.00,weatherlink.com 1.10,2013-11-06 13:17:00,
2013-11-06 08:32:00,80.1,71.0,30.04,ENE,77,2.0,10.0,74,0.00,,,0.00,weatherlink.com 1.10,2013-11-06 13:32:00,
2013-11-06 08:47:00,80.3,71.0,30.03,SE,141,2.0,13.0,73,0.00,,,0.00,weatherlink.com 1.10,2013-11-06 13:47:00,
2013-11-06 09:03:00,80.7,71.0,30.04,East,89,3.0,15.0,73,0.00,,,0.00,weatherlink.com 1.10,2013-11-06 14:03:00,
2013-11-06 09:18:00,80.8,71.0,30.04,ENE,77,8.0,10.0,72,0.00,,,0.00,weatherlink.com 1.10,2013-11-06 14:18:00,
2013-11-06 09:33:00,80.5,71.0,30.04,SSE,167,3.0,13.0,72,0.00,,,0.00,weatherlink.com 1.10,2013-11-06 14:33:00,
2013-11-06 09:48:00,80.7,71.0,30.04,South,174,2.0,13.0,73,0.00,,,0.00,weatherlink.com 1.10,2013-11-06 14:48:00,
2013-11-06 10:03:00,80.4,71.0,30.05,East,93,4.0,8.0,74,0.00,,,0.00,weatherlink.com 1.10,2013-11-06 15:03:00,
2013-11-06 10:18:00,80.2,71.0,30.04,East,87,4.0,12.0,73,0.00,,,0.00,weatherlink.com 1.10,2013-11-06 15:18:00,
2013-11-06 10:33:00,81.1,72.0,30.04,ESE,105,4.0,8.0,73,0.00,,,0.00,weatherlink.com 1.10,2013-11-06 15:33:00,
2013-11-06 10:48:00,81.5,71.0,30.04,ESE,111,2.0,11.0,71,0.00,,,0.00,weatherlink.com 1.10,2013-11-06 15:48:00,
2013-11-06 11:03:00,81.6,72.0,30.04,ENE,76,4.0,8.0,72,0.00,,,0.00,weatherlink.com 1.10,2013-11-06 16:03:00,
2013-11-06 11:18:00,82.3,71.0,30.03,East,101,6.0,12.0,69,0.00,,,0.00,weatherlink.com 1.10,2013-11-06 16:18:00,
2013-11-06 11:33:00,81.8,71.0,30.03,ENE,72,5.0,8.0,69,0.00,,,0.00,weatherlink.com 1.10,2013-11-06 16:33:00,
2013-11-06 11:48:00,82.1,71.0,30.02,ESE,105,5.0,9.0,69,0.00,,,0.00,weatherlink.com 1.10,2013-11-06 16:48:00,
2013-11-06 12:03:00,82.0,71.0,30.02,ESE,120,5.0,9.0,69,0.00,,,0.00,weatherlink.com 1.10,2013-11-06 17:03:00,
2013-11-06 12:18:00,82.5,70.0,30.02,East,93,1.0,7.0,67,0.00,,,0.00,weatherlink.com 1.10,2013-11-06 17:18:00,
2013-11-06 12:33:00,82.3,70.0,30.01,East,99,3.0,12.0,66,0.00,,,0.00,weatherlink.com 1.10,2013-11-06 17:33:00,
2013-11-06 12:48:00,82.6,70.0,30.00,ENE,67,9.0,9.0,66,0.00,,,0.00,weatherlink.com 1.10,2013-11-06 17:48:00,
2013-11-06 13:02:00,83.0,70.0,30.00,SE,133,1.0,10.0,64,0.00,,,0.00,weatherlink.com 1.10,2013-11-06 18:02:00,
2013-11-06 13:18:00,82.8,70.0,29.99,SE,138,3.0,8.0,65,0.00,,,0.00,weatherlink.com 1.10,2013-11-06 18:18:00,
2013-11-06 13:33:00,83.2,70.0,29.99,ESE,120,4.0,8.0,64,0.00,,,0.00,weatherlink.com 1.10,2013-11-06 18:33:00,
2013-11-06 13:48:00,82.3,70.0,29.99,East,93,3.0,8.0,66,0.00,,,0.00,weatherlink.com 1.10,2013-11-06 18:48:00,
2013-11-06 14:03:00,82.6,71.0,29.98,NE,56,2.0,8.0,67,0.00,,,0.00,weatherlink.com 1.10,2013-11-06 19:03:00,
2013-11-06 14:18:00,83.2,71.0,29.98,ESE,113,3.0,7.0,66,0.00,,,0.00,weatherlink.com 1.10,2013-11-06 19:18:00,
2013-11-06 14:33:00,82.4,70.0,29.98,ESE,120,1.0,6.0,67,0.00,,,0.00,weatherlink.com 1.10,2013-11-06 19:33:00,
2013-11-06 14:48:00,82.9,70.0,29.98,ESE,112,1.0,5.0,65,0.00,,,0.00,weatherlink.com 1.10,2013-11-06 19:48:00,
2013-11-06 15:03:00,82.4,69.0,29.98,ENE,66,5.0,6.0,65,0.00,,,0.00,weatherlink.com 1.10,2013-11-06 20:03:00,
2013-11-06 15:18:00,82.4,69.0,29.98,ESE,104,1.0,5.0,65,0.00,,,0.00,weatherlink.com 1.10,2013-11-06 20:18:00,
2013-11-06 15:33:00,82.8,71.0,29.98,ENE,72,1.0,5.0,67,0.00,,,0.00,weatherlink.com 1.10,2013-11-06 20:33:00,
2013-11-06 15:48:00,81.7,71.0,29.97,East,98,2.0,3.0,69,0.00,,,0.00,weatherlink.com 1.10,2013-11-06 20:48:00,
2013-11-06 16:03:00,81.9,71.0,29.98,SSE,165,2.0,5.0,69,0.00,,,0.00,weatherlink.com 1.10,2013-11-06 21:03:00,
2013-11-06 16:18:00,80.8,71.0,29.98,ESE,111,1.0,5.0,71,0.00,,,0.00,weatherlink.com 1.10,2013-11-06 21:18:00,
2013-11-06 16:33:00,81.0,71.0,29.98,ENE,65,2.0,5.0,71,0.00,,,0.00,weatherlink.com 1.10,2013-11-06 21:33:00,
2013-11-06 16:48:00,80.1,71.0,29.98,ESE,117,1.0,4.0,73,0.00,,,0.00,weatherlink.com 1.10,2013-11-06 21:48:00,
2013-11-06 17:03:00,79.7,70.0,29.98,ENE,66,1.0,5.0,72,0.00,,,0.00,weatherlink.com 1.10,2013-11-06 22:03:00,
2013-11-06 17:18:00,79.1,70.0,29.99,ENE,58,3.0,7.0,73,0.00,,,0.00,weatherlink.com 1.10,2013-11-06 22:18:00,
2013-11-06 17:33:00,78.5,70.0,29.99,NE,34,2.0,4.0,74,0.00,,,0.00,weatherlink.com 1.10,2013-11-06 22:33:00,
2013-11-06 17:48:00,78.2,70.0,29.99,ENE,61,2.0,2.0,75,0.00,,,0.00,weatherlink.com 1.10,2013-11-06 22:48:00,
2013-11-06 18:03:00,77.6,69.0,29.99,ESE,105,1.0,2.0,75,0.00,,,0.00,weatherlink.com 1.10,2013-11-06 23:03:00,
2013-11-06 18:18:00,77.4,69.0,29.99,East,91,0.0,1.0,76,0.00,,,0.00,weatherlink.com 1.10,2013-11-06 23:18:00,
2013-11-06 18:33:00,77.3,69.0,29.99,ESE,106,0.0,2.0,76,0.00,,,0.00,weatherlink.com 1.10,2013-11-06 23:33:00,
2013-11-06 18:48:00,76.7,69.0,30.00,ENE,75,0.0,1.0,77,0.00,,,0.00,weatherlink.com 1.10,2013-11-06 23:48:00,
2013-11-06 19:03:00,76.1,69.0,30.00,East,96,0.0,1.0,78,0.00,,,0.00,weatherlink.com 1.10,2013-11-07 00:03:00,
2013-11-06 19:18:00,75.1,68.0,30.00,East,96,0.0,0.0,79,0.00,,,0.00,weatherlink.com 1.10,2013-11-07 00:18:00,
2013-11-06 19:33:00,74.5,69.0,30.00,ESE,105,0.0,0.0,82,0.00,,,0.00,weatherlink.com 1.10,2013-11-07 00:33:00,
2013-11-06 19:48:00,73.9,69.0,30.00,East,98,0.0,1.0,84,0.00,,,0.00,weatherlink.com 1.10,2013-11-07 00:48:00,
2013-11-06 20:03:00,72.8,68.0,30.00,East,98,0.0,1.0,86,0.00,,,0.00,weatherlink.com 1.10,2013-11-07 01:03:00,
2013-11-06 20:18:00,72.8,68.0,30.00,ESE,117,0.0,1.0,85,0.00,,,0.00,weatherlink.com 1.10,2013-11-07 01:18:00,
2013-11-06 20:34:00,72.5,68.0,30.01,ESE,113,0.0,1.0,86,0.00,,,0.00,weatherlink.com 1.10,2013-11-07 01:34:00,
2013-11-06 20:49:00,72.0,68.0,30.01,ESE,111,1.0,1.0,87,0.00,,,0.00,weatherlink.com 1.10,2013-11-07 01:49:00,
2013-11-06 21:04:00,71.9,68.0,30.01,ESE,106,0.0,1.0,88,0.00,,,0.00,weatherlink.com 1.10,2013-11-07 02:04:00,
2013-11-06 21:19:00,71.5,68.0,30.02,ESE,111,0.0,1.0,88,0.00,,,0.00,weatherlink.com 1.10,2013-11-07 02:19:00,
2013-11-06 21:34:00,71.2,68.0,30.01,ESE,105,0.0,1.0,89,0.00,,,0.00,weatherlink.com 1.10,2013-11-07 02:34:00,
2013-11-06 21:49:00,71.0,68.0,30.01,East,98,0.0,1.0,90,0.00,,,0.00,weatherlink.com 1.10,2013-11-07 02:49:00,
2013-11-06 22:04:00,70.5,68.0,30.02,ESE,104,0.0,0.0,90,0.00,,,0.00,weatherlink.com 1.10,2013-11-07 03:04:00,
2013-11-06 22:19:00,70.1,67.0,30.01,ESE,105,0.0,0.0,91,0.00,,,0.00,weatherlink.com 1.10,2013-11-07 03:19:00,
2013-11-06 22:34:00,69.9,67.0,30.01,ESE,109,0.0,0.0,91,0.00,,,0.00,weatherlink.com 1.10,2013-11-07 03:34:00,
2013-11-06 22:49:00,69.8,67.0,30.01,ESE,110,0.0,0.0,91,0.00,,,0.00,weatherlink.com 1.10,2013-11-07 03:49:00,
2013-11-06 23:04:00,69.3,67.0,30.00,ESE,110,0.0,1.0,92,0.00,,,0.00,weatherlink.com 1.10,2013-11-07 04:04:00,
2013-11-06 23:19:00,69.2,67.0,30.00,ESE,114,0.0,0.0,92,0.00,,,0.00,weatherlink.com 1.10,2013-11-07 04:19:00,
2013-11-06 23:34:00,69.4,67.0,30.00,ESE,115,0.0,1.0,93,0.00,,,0.00,weatherlink.com 1.10,2013-11-07 04:34:00,
2013-11-06 23:49:00,69.5,68.0,29.99,ESE,107,0.0,1.0,93,0.00,,,0.00,weatherlink.com 1.10,2013-11-07 04:49:00,